FW5225 Weather Reports


time (UTC)temp
C
wind
direction
speed
KPH
gust
KPH
rain 1hr
cm
rain 24hr
cm
rain mn
cm
humidity
%
barometer
mb
20220927024047 32 51 6.4 11.3 0.00 0.00 0.00 30 1007.6
20220927023547 32 82 0.0 0.0 0.00 0.00 0.00 33 1007.3
20220927023049 32 82 0.0 0.0 0.00 0.00 0.00 33 1007.1
20220927022546 32 82 0.0 0.0 0.00 0.00 0.00 33 1007.1
20220927022045 32 82 0.0 0.0 0.00 0.00 0.00 33 1007.0
20220927021623 32 82 0.0 0.0 0.00 0.00 0.00 32 1006.9
20220927021047 32 82 0.0 0.0 0.00 0.00 0.00 34 1006.9
20220927020547 32 82 0.0 0.0 0.00 0.00 0.00 34 1006.9
20220927020101 32 82 0.0 0.0 0.00 0.00 0.00 34 1006.8
20220927015545 32 82 0.0 0.0 0.00 0.00 0.00 34 1006.8
20220927015045 33 82 0.0 0.0 0.00 0.00 0.00 34 1006.7
20220927014554 33 82 0.0 0.0 0.00 0.00 0.00 34 1006.7
20220927014046 33 82 0.0 0.0 0.00 0.00 0.00 33 1006.6
20220927013545 33 82 0.0 1.6 0.00 0.00 0.00 34 1006.7
20220927013045 34 82 0.0 1.6 0.00 0.00 0.00 31 1006.6
20220927012548 34 82 0.0 3.2 0.00 0.00 0.00 31 1006.6
20220927012047 35 82 1.6 3.2 0.00 0.00 0.00 30 1006.6
20220927011606 35 82 0.0 3.2 0.00 0.00 0.00 31 1006.6
20220927011043 36 82 0.0 4.8 0.00 0.00 0.00 29 1006.6
20220927010549 36 82 1.6 4.8 0.00 0.00 0.00 28 1006.7
20220927010043 37 82 1.6 6.4 0.00 0.00 0.00 27 1006.7
20220927005543 37 82 1.6 6.4 0.00 0.00 0.00 23 1006.7
20220927005043 37 86 1.6 3.2 0.00 0.00 0.00 23 1006.7
20220927004543 37 86 0.0 8.0 0.00 0.00 0.00 23 1006.7
20220927004047 37 96 1.6 4.8 0.00 0.00 0.00 22 1006.7
20220927003552 37 95 0.0 4.8 0.00 0.00 0.00 23 1006.7
20220927003137 37 95 1.6 8.0 0.00 0.00 0.00 23 1006.7
20220927002542 37 95 3.2 9.7 0.00 0.00 0.00 22 1006.7
20220927002043 37 93 4.8 12.9 0.00 0.00 0.00 22 1006.7
20220927001543 38 88 3.2 12.9 0.00 0.00 0.00 22 1006.7
20220927001042 38 84 6.4 11.3 0.00 0.00 0.00 22 1006.7
20220927000543 38 91 3.2 11.3 0.00 0.00 0.00 23 1006.6
20220927000051 38 94 4.8 11.3 0.00 0.00 0.00 21 1006.7
20220926235541 38 128 4.8 12.9 0.00 0.00 0.00 21 1006.7
20220926235044 38 99 3.2 12.9 0.00 0.00 0.00 21 1006.7
20220926234553 38 105 4.8 14.5 0.00 0.00 0.00 21 1006.7
20220926234039 38 68 6.4 14.5 0.00 0.00 0.00 22 1006.8
20220926233540 38 70 6.4 14.5 0.00 0.00 0.00 21 1006.8
20220926233042 38 66 4.8 9.7 0.00 0.00 0.00 22 1006.7
20220926232543 38 84 1.6 9.7 0.00 0.00 0.00 21 1006.8
20220926232038 38 82 4.8 14.5 0.00 0.00 0.00 22 1006.8
20220926231541 38 92 6.4 14.5 0.00 0.00 0.00 22 1006.8
20220926231041 39 105 8.0 16.1 0.00 0.00 0.00 20 1006.8
20220926230537 39 52 8.0 16.1 0.00 0.00 0.00 22 1006.9
20220926230052 39 63 4.8 12.9 0.00 0.00 0.00 22 1006.8
20220926225537 39 67 4.8 16.1 0.00 0.00 0.00 21 1006.9
20220926225036 39 63 6.4 16.1 0.00 0.00 0.00 22 1007.0
20220926224536 38 59 4.8 12.9 0.00 0.00 0.00 22 1007.0
20220926224039 38 107 4.8 12.9 0.00 0.00 0.00 21 1007.0
20220926223535 38 85 6.4 17.7 0.00 0.00 0.00 22 1007.0
20220926223035 38 355 4.8 17.7 0.00 0.00 0.00 24 1007.0
20220926222535 38 49 8.0 16.1 0.00 0.00 0.00 24 1007.1
20220926222037 39 360 4.8 9.7 0.00 0.00 0.00 24 1007.1
20220926221549 39 41 1.6 8.0 0.00 0.00 0.00 22 1007.2
20220926221032 39 65 3.2 12.9 0.00 0.00 0.00 21 1007.2
20220926220531 39 66 4.8 14.5 0.00 0.00 0.00 22 1007.3
20220926220031 39 74 6.4 16.1 0.00 0.00 0.00 21 1007.4
20220926215530 39 72 8.0 16.1 0.00 0.00 0.00 22 1007.5
20220926215029 38 44 4.8 11.3 0.00 0.00 0.00 22 1007.5
20220926214535 38 66 0.0 6.4 0.00 0.00 0.00 24 1007.6
20220926214028 39 66 0.0 8.0 0.00 0.00 0.00 23 1007.7
20220926213527 38 46 1.6 12.9 0.00 0.00 0.00 21 1007.7
20220926213054 38 107 6.4 12.9 0.00 0.00 0.00 20 1007.8
20220926212528 39 56 4.8 12.9 0.00 0.00 0.00 20 1007.9
20220926212025 39 61 9.7 16.1 0.00 0.00 0.00 20 1008.0
20220926211524 39 54 8.0 16.1 0.00 0.00 0.00 22 1008.1
20220926211023 38 44 8.0 12.9 0.00 0.00 0.00 21 1008.1
20220926210523 38 115 6.4 14.5 0.00 0.00 0.00 21 1008.2
20220926210100 38 97 3.2 11.3 0.00 0.00 0.00 21 1008.3
20220926205523 38 103 1.6 11.3 0.00 0.00 0.00 21 1008.3
20220926205020 38 98 1.6 11.3 0.00 0.00 0.00 21 1008.4
20220926204518 38 126 3.2 14.5 0.00 0.00 0.00 21 1008.5
20220926204020 38 69 8.0 14.5 0.00 0.00 0.00 21 1008.7
20220926203517 38 147 1.6 14.5 0.00 0.00 0.00 21 1008.7
20220926203016 38 169 6.4 14.5 0.00 0.00 0.00 21 1008.9
20220926202515 38 103 4.8 14.5 0.00 0.00 0.00 21 1009.0
20220926202014 38 68 6.4 14.5 0.00 0.00 0.00 21 1009.1
20220926201514 37 110 4.8 11.3 0.00 0.00 0.00 21 1009.2
20220926201014 37 102 6.4 12.9 0.00 0.00 0.00 21 1009.3
20220926200513 37 95 6.4 14.5 0.00 0.00 0.00 21 1009.4
20220926200018 37 85 6.4 14.5 0.00 0.00 0.00 21 1009.4
20220926195515 37 105 6.4 14.5 0.00 0.00 0.00 21 1009.5
20220926195012 37 119 4.8 16.1 0.00 0.00 0.00 21 1009.6
20220926194511 37 85 6.4 17.7 0.00 0.00 0.00 21 1009.7
20220926194009 37 86 9.7 17.7 0.00 0.00 0.00 21 1009.7
20220926193510 37 117 6.4 14.5 0.00 0.00 0.00 22 1009.8
20220926193015 37 108 3.2 14.5 0.00 0.00 0.00 22 1009.8
20220926192511 37 154 6.4 14.5 0.00 0.00 0.00 22 1009.9
20220926192007 37 125 4.8 16.1 0.00 0.00 0.00 22 1010.0
20220926191507 37 80 8.0 16.1 0.00 0.00 0.00 22 1010.1
20220926191005 37 119 8.0 16.1 0.00 0.00 0.00 21 1010.1
20220926190504 36 61 4.8 11.3 0.00 0.00 0.00 24 1010.2
20220926190007 36 43 4.8 12.9 0.00 0.00 0.00 22 1010.2
20220926185503 36 44 6.4 16.1 0.00 0.00 0.00 23 1010.3
20220926185004 36 49 8.0 16.1 0.00 0.00 0.00 22 1010.4
20220926184501 36 67 4.8 16.1 0.00 0.00 0.00 22 1010.4
20220926184100 36 46 3.2 16.1 0.00 0.00 0.00 23 1010.4
20220926183559 36 78 6.4 11.3 0.00 0.00 0.00 22 1010.5
20220926183102 36 51 1.6 9.7 0.00 0.00 0.00 25 1010.5
20220926182559 36 79 3.2 14.5 0.00 0.00 0.00 22 1010.6
20220926182056 35 60 6.4 16.1 0.00 0.00 0.00 24 1010.7
20220926181628 35 72 8.0 16.1 0.00 0.00 0.00 25 1010.7
20220926181054 35 50 8.0 16.1 0.00 0.00 0.00 25 1010.9
20220926180556 35 18 6.4 14.5 0.00 0.00 0.00 27 1010.9
20220926180104 35 40 4.8 12.9 0.00 0.00 0.00 24 1010.9
20220926175551 35 57 6.4 11.3 0.00 0.00 0.00 24 1011.0
20220926175050 35 42 4.8 12.9 0.00 0.00 0.00 24 1011.0
20220926174604 35 17 3.2 12.9 0.00 0.00 0.00 26 1011.1
20220926174057 34 70 4.8 16.1 0.00 0.00 0.00 23 1011.1
20220926173548 34 60 8.0 16.1 0.00 0.00 0.00 25 1011.2
20220926173056 34 62 3.2 12.9 0.00 0.00 0.00 24 1011.2
20220926172546 34 82 4.8 12.9 0.00 0.00 0.00 25 1011.3
20220926172044 34 39 6.4 11.3 0.00 0.00 0.00 26 1011.3
20220926171543 33 42 6.4 12.9 0.00 0.00 0.00 24 1011.4
20220926171041 33 39 4.8 12.9 0.00 0.00 0.00 25 1011.4
20220926170541 33 45 4.8 12.9 0.00 0.00 0.00 26 1011.4
20220926170052 33 30 8.0 12.9 0.00 0.00 0.00 24 1011.4
20220926165542 33 59 8.0 14.5 0.00 0.00 0.00 24 1011.4
20220926165038 33 34 9.7 14.5 0.00 0.00 0.00 25 1011.4
20220926164538 32 53 8.0 14.5 0.00 0.00 0.00 24 1011.5
20220926164037 32 38 9.7 17.7 0.00 0.00 0.00 23 1011.5
20220926163535 32 46 8.0 17.7 0.00 0.00 0.00 25 1011.5
20220926163058 32 40 8.0 14.5 0.00 0.00 0.00 24 1011.5
20220926162534 32 32 4.8 12.9 0.00 0.00 0.00 27 1011.5
20220926162032 32 59 8.0 14.5 0.00 0.00 0.00 23 1011.5
20220926161535 32 40 9.7 17.7 0.00 0.00 0.00 24 1011.5
20220926161030 32 39 9.7 17.7 0.00 0.00 0.00 25 1011.4
20220926160540 32 38 8.0 16.1 0.00 0.00 0.00 24 1011.4
20220926160100 31 40 8.0 14.5 0.00 0.00 0.00 24 1011.4
20220926155527 31 46 4.8 19.3 0.00 0.00 0.00 26 1011.4
20220926155026 31 41 8.0 19.3 0.00 0.00 0.00 26 1011.3
20220926154525 31 61 6.4 19.3 0.00 0.00 0.00 24 1011.2
20220926154023 31 40 12.9 19.3 0.00 0.00 0.00 24 1011.2
20220926153521 30 53 6.4 19.3 0.00 0.00 0.00 26 1011.2
20220926153119 30 39 6.4 16.1 0.00 0.00 0.00 27 1011.1
20220926152520 30 40 8.0 19.3 0.00 0.00 0.00 26 1011.1
20220926152028 30 21 9.7 19.3 0.00 0.00 0.00 25 1011.0
20220926151518 30 45 11.3 19.3 0.00 0.00 0.00 24 1011.0
20220926151018 30 42 11.3 19.3 0.00 0.00 0.00 24 1010.9
20220926150516 30 19 9.7 19.3 0.00 0.00 0.00 26 1010.9
20220926150019 30 25 6.4 16.1 0.00 0.00 0.00 27 1010.8
20220926145513 30 49 8.0 19.3 0.00 0.00 0.00 25 1010.8
20220926145016 30 31 9.7 19.3 0.00 0.00 0.00 27 1010.8
20220926144529 29 35 8.0 12.9 0.00 0.00 0.00 25 1010.8
20220926144009 29 33 8.0 16.1 0.00 0.00 0.00 26 1010.7
20220926143516 29 35 6.4 12.9 0.00 0.00 0.00 27 1010.7
20220926143007 28 360 4.8 17.7 0.00 0.00 0.00 25 1010.7
20220926142507 28 34 8.0 17.7 0.00 0.00 0.00 27 1010.6
20220926142004 28 22 6.4 14.5 0.00 0.00 0.00 26 1010.6
20220926141503 28 9 8.0 14.5 0.00 0.00 0.00 27 1010.5
20220926141002 28 32 8.0 12.9 0.00 0.00 0.00 27 1010.5
20220926140610 28 17 6.4 11.3 0.00 0.00 0.00 26 1010.5
20220926140112 28 40 8.0 11.3 0.00 0.00 0.00 25 1010.4
20220926135601 27 34 6.4 14.5 0.00 0.00 0.00 27 1010.4
20220926135057 27 40 6.4 11.3 0.00 0.00 0.00 26 1010.3
20220926134557 27 37 6.4 9.7 0.00 0.00 0.00 26 1010.3
20220926134056 27 31 6.4 11.3 0.00 0.00 0.00 26 1010.3
20220926133556 27 5 4.8 11.3 0.00 0.00 0.00 27 1010.3
20220926133054 27 15 4.8 12.9 0.00 0.00 0.00 26 1010.2
20220926132553 27 37 9.7 14.5 0.00 0.00 0.00 26 1010.1
20220926132052 27 46 9.7 14.5 0.00 0.00 0.00 24 1010.1
20220926131556 27 25 8.0 14.5 0.00 0.00 0.00 25 1010.1
20220926131051 27 49 8.0 14.5 0.00 0.00 0.00 24 1010.1
20220926130551 27 52 9.7 14.5 0.00 0.00 0.00 25 1010.0
20220926130051 27 49 8.0 14.5 0.00 0.00 0.00 25 1010.0
20220926125559 27 46 8.0 14.5 0.00 0.00 0.00 24 1010.0
20220926125050 27 29 8.0 14.5 0.00 0.00 0.00 25 1009.9
20220926124550 27 41 6.4 12.9 0.00 0.00 0.00 26 1009.8
20220926124054 27 40 4.8 12.9 0.00 0.00 0.00 25 1009.7
20220926123550 27 29 8.0 12.9 0.00 0.00 0.00 25 1009.7
20220926123049 27 34 6.4 11.3 0.00 0.00 0.00 26 1009.6
20220926122552 26 51 4.8 8.0 0.00 0.00 0.00 26 1009.6
20220926122046 27 45 3.2 8.0 0.00 0.00 0.00 26 1009.5
20220926121546 27 42 4.8 9.7 0.00 0.00 0.00 26 1009.4
20220926121045 27 36 4.8 9.7 0.00 0.00 0.00 26 1009.4
20220926120546 27 28 1.6 8.0 0.00 0.00 0.00 27 1009.4
20220926120104 27 35 3.2 8.0 0.00 0.00 0.00 28 1009.4
20220926115545 26 34 4.8 8.0 0.00 0.00 0.00 26 1009.3
20220926115044 26 40 4.8 9.7 0.00 0.00 0.00 27 1009.3
20220926114547 26 37 4.8 9.7 0.00 0.00 0.00 28 1009.2
20220926114044 26 38 4.8 8.0 0.00 0.00 0.00 28 1009.3
20220926113544 27 49 4.8 8.0 0.00 0.00 0.00 27 1009.3
20220926113044 26 38 4.8 8.0 0.00 0.00 0.00 28 1009.2
20220926112550 26 53 4.8 9.7 0.00 0.00 0.00 27 1009.2
20220926112049 27 40 3.2 9.7 0.00 0.00 0.00 28 1009.3
20220926111543 27 49 4.8 11.3 0.00 0.00 0.00 26 1009.2
20220926111043 26 45 6.4 11.3 0.00 0.00 0.00 26 1009.3
20220926110543 26 63 4.8 9.7 0.00 0.00 0.00 27 1009.3
20220926110042 26 59 6.4 11.3 0.00 0.00 0.00 27 1009.2
20220926105542 25 55 6.4 11.3 0.00 0.00 0.00 29 1009.3
20220926105042 25 23 6.4 11.3 0.00 0.00 0.00 31 1009.3
20220926104542 25 14 3.2 8.0 0.00 0.00 0.00 34 1009.3
20220926104042 25 40 4.8 8.0 0.00 0.00 0.00 33 1009.3
20220926103541 25 53 1.6 4.8 0.00 0.00 0.00 35 1009.4
20220926103040 26 55 3.2 8.0 0.00 0.00 0.00 32 1009.3
20220926102543 26 57 3.2 8.0 0.00 0.00 0.00 31 1009.3
20220926102038 27 55 3.2 8.0 0.00 0.00 0.00 29 1009.2
20220926101540 27 53 4.8 8.0 0.00 0.00 0.00 27 1009.3
20220926101038 27 63 4.8 11.3 0.00 0.00 0.00 26 1009.2
20220926100536 27 57 6.4 11.3 0.00 0.00 0.00 25 1009.1
20220926100043 27 36 4.8 8.0 0.00 0.00 0.00 26 1009.1
20220926095538 28 60 4.8 6.4 0.00 0.00 0.00 26 1009.1
20220926095036 28 69 3.2 6.4 0.00 0.00 0.00 24 1009.1
20220926094543 28 67 4.8 6.4 0.00 0.00 0.00 24 1009.1
20220926094035 28 57 3.2 9.7 0.00 0.00 0.00 23 1009.0
20220926093535 28 51 4.8 9.7 0.00 0.00 0.00 23 1009.0
20220926093036 28 5 3.2 11.3 0.00 0.00 0.00 25 1009.0
20220926092533 28 49 6.4 11.3 0.00 0.00 0.00 24 1008.9
20220926092035 28 22 3.2 9.7 0.00 0.00 0.00 27 1008.9
20220926091532 28 39 4.8 11.3 0.00 0.00 0.00 25 1009.0
20220926091032 27 36 6.4 11.3 0.00 0.00 0.00 27 1009.1
20220926090531 27 49 6.4 11.3 0.00 0.00 0.00 27 1009.1
20220926090031 27 42 8.0 9.7 0.00 0.00 0.00 29 1009.1
20220926085534 26 43 4.8 8.0 0.00 0.00 0.00 30 1009.1
20220926085030 26 49 4.8 8.0 0.00 0.00 0.00 31 1009.1
20220926084529 26 42 0.0 3.2 0.00 0.00 0.00 37 1009.1
20220926084036 26 42 0.0 0.0 0.00 0.00 0.00 33 1009.1
20220926083529 27 42 0.0 0.0 0.00 0.00 0.00 31 1009.0
20220926083037 27 42 0.0 3.2 0.00 0.00 0.00 31 1009.1
20220926082528 27 42 0.0 3.2 0.00 0.00 0.00 30 1009.1
20220926082032 27 41 0.0 3.2 0.00 0.00 0.00 30 1009.1
20220926081534 27 41 0.0 6.4 0.00 0.00 0.00 33 1009.1
20220926081033 27 42 1.6 6.4 0.00 0.00 0.00 30 1009.1
20220926080527 27 40 3.2 6.4 0.00 0.00 0.00 30 1009.0
20220926080027 26 36 1.6 6.4 0.00 0.00 0.00 31 1009.1
20220926075527 26 35 3.2 6.4 0.00 0.00 0.00 32 1009.1
20220926075025 25 22 0.0 4.8 0.00 0.00 0.00 37 1009.1
20220926074524 25 13 0.0 0.0 0.00 0.00 0.00 42 1009.1
20220926074023 26 13 0.0 0.0 0.00 0.00 0.00 39 1009.1
20220926073522 26 13 0.0 0.0 0.00 0.00 0.00 39 1009.1
20220926073021 26 13 0.0 0.0 0.00 0.00 0.00 40 1009.1
20220926072527 26 13 0.0 0.0 0.00 0.00 0.00 34 1009.1
20220926072018 26 13 0.0 0.0 0.00 0.00 0.00 35 1009.2
20220926071531 27 13 0.0 0.0 0.00 0.00 0.00 33 1009.1
20220926071017 27 13 0.0 0.0 0.00 0.00 0.00 34 1009.1
20220926070515 27 13 0.0 0.0 0.00 0.00 0.00 34 1009.1
20220926070040 28 13 0.0 0.0 0.00 0.00 0.00 34 1009.2
20220926065513 28 13 0.0 0.0 0.00 0.00 0.00 28 1009.2
20220926065013 28 13 0.0 0.0 0.00 0.00 0.00 27 1009.1
20220926064512 29 13 0.0 4.8 0.00 0.00 0.00 27 1009.2
20220926064026 29 13 0.0 4.8 0.00 0.00 0.00 28 1009.2
20220926063515 29 13 0.0 6.4 0.00 0.00 0.00 28 1009.2
20220926063012 29 14 1.6 9.7 0.00 0.00 0.00 27 1009.2
20220926062512 29 25 4.8 9.7 0.00 0.00 0.00 27 1009.2
20220926062012 29 28 4.8 11.3 0.00 0.00 0.00 27 1009.3
20220926061519 28 32 6.4 12.9 0.00 0.00 0.00 28 1009.3
20220926061011 28 28 8.0 14.5 0.00 0.00 0.00 29 1009.2
20220926060513 27 48 9.7 16.1 0.00 0.00 0.00 31 1009.3
20220926060011 27 45 6.4 11.3 0.00 0.00 0.00 34 1009.2
20220926055511 28 61 4.8 9.7 0.00 0.00 0.00 33 1009.3
20220926055010 28 63 3.2 8.0 0.00 0.00 0.00 32 1009.2
20220926054511 30 68 4.8 11.3 0.00 0.00 0.00 30 1009.2
20220926054011 30 72 3.2 11.3 0.00 0.00 0.00 27 1009.1
20220926053510 31 78 1.6 4.8 0.00 0.00 0.00 24 1009.0
20220926053012 31 328 0.0 4.8 0.00 0.00 0.00 25 1008.9
20220926052510 31 328 0.0 4.8 0.00 0.00 0.00 25 1008.8
20220926052010 31 328 1.6 6.4 0.00 0.00 0.00 24 1008.8
20220926051516 31 328 3.2 6.4 0.00 0.00 0.00 23 1008.8
20220926051009 31 330 1.6 4.8 0.00 0.00 0.00 24 1008.8
20220926050517 32 330 1.6 4.8 0.00 0.00 0.00 23 1008.8
20220926050009 32 329 1.6 4.8 0.00 0.00 0.00 23 1008.8
20220926045511 32 330 1.6 4.8 0.00 0.00 0.00 23 1008.7
20220926045010 32 331 3.2 6.4 0.00 0.00 0.00 23 1008.8
20220926044509 32 329 3.2 6.4 0.00 0.00 0.00 22 1008.8
20220926044010 32 330 3.2 6.4 0.00 0.00 0.00 23 1008.8
20220926043509 32 329 4.8 8.0 0.00 0.00 0.00 23 1008.8
20220926043009 31 330 4.8 8.0 0.00 0.00 0.00 23 1008.7
20220926042509 31 329 3.2 6.4 0.00 0.00 0.00 24 1008.7
20220926042008 31 313 3.2 6.4 0.00 0.00 0.00 24 1008.7
20220926041508 31 313 3.2 6.4 0.00 0.00 0.00 24 1008.7
20220926041007 31 313 3.2 6.4 0.00 0.00 0.00 24 1008.7
20220926040508 31 312 3.2 4.8 0.00 0.00 0.00 25 1008.8
20220926040008 31 311 1.6 6.4 0.00 0.00 0.00 25 1008.8
20220926035509 31 311 3.2 6.4 0.00 0.00 0.00 26 1008.8
20220926035011 31 311 3.2 6.4 0.00 0.00 0.00 26 1008.8
20220926034508 31 310 1.6 4.8 0.00 0.00 0.00 26 1008.8
20220926034009 31 309 0.0 4.8 0.00 0.00 0.00 26 1008.7
20220926033509 31 309 1.6 4.8 0.00 0.00 0.00 26 1008.7
20220926033007 32 309 1.6 6.4 0.00 0.00 0.00 25 1008.7
20220926032507 32 309 3.2 6.4 0.00 0.00 0.00 24 1008.7
20220926032008 32 312 3.2 6.4 0.00 0.00 0.00 24 1008.7
20220926031512 31 288 3.2 6.4 0.00 0.00 0.00 25 1008.6
20220926031007 31 268 3.2 6.4 0.00 0.00 0.00 26 1008.6
20220926030513 31 238 0.0 3.2 0.00 0.00 0.00 30 1008.6
20220926030013 31 238 0.0 1.6 0.00 0.00 0.00 29 1008.5
20220926025506 31 238 0.0 3.2 0.00 0.00 0.00 26 1008.5
20220926025006 31 238 0.0 3.2 0.00 0.00 0.00 27 1008.5
20220926024505 32 232 0.0 3.2 0.00 0.00 0.00 27 1008.5